Terminal Aerodrome Forecast
Issued by NWS Riverton, WY

Home | Current Version | Previous Version | Text Only | Print | Product List | Glossary On
Versions: 1 2 3 4 5 6 7 8 9 10 11 12
000
FTUS45 KRIW 060520
TAFRIW
TAF
KRIW 060520Z 0606/0706 30007KT P6SM SCT070 BKN120
     FM061600 03012KT P6SM VCSH SCT030 BKN070
     FM062000 05014G21KT P6SM VCTS SCT025CB BKN060
     FM070000 03010KT 5SM -RA SCT017 BKN025=

USA.gov is the U.S. government's official web portal to all federal, state and local government web resources and services.